Time;durP1;ratioP1;P1;durP2;ratioP2;P2;SDS_P1;SDS_P2;PMS_P1;PMS_P2;Temp;Humidity;BMP_temperature;BMP_pressure;BME280_temperature;BME280_humidity;BME280_pressure;Samples;Min_cycle;Max_cycle;Signal;HPM_P1;HPM_P2
2023/03/26 00:01:18;;;;;;;36.05;7.72;;;;;;;6.36;100.00;100570.53;5072931;28;20494;-71
2023/03/26 00:03:52;;;;;;;34.08;7.40;;;;;;;6.32;100.00;100566.13;5072967;28;20025;-71
2023/03/26 00:06:21;;;;;;;38.13;7.38;;;;;;;6.24;100.00;100579.09;5073111;28;20480;-73
2023/03/26 00:08:47;;;;;;;38.08;7.18;;;;;;;6.20;100.00;100574.63;5072874;28;20025;-73
2023/03/26 00:11:15;;;;;;;33.53;7.15;;;;;;;6.20;100.00;100579.00;5072791;28;20031;-72
2023/03/26 00:13:42;;;;;;;35.95;6.90;;;;;;;6.24;100.00;100570.34;5072969;28;20039;-74
2023/03/26 00:16:09;;;;;;;35.72;7.35;;;;;;;6.20;100.00;100571.13;5072783;28;20038;-73
2023/03/26 00:18:36;;;;;;;35.42;7.53;;;;;;;6.14;100.00;100578.91;5072730;28;20037;-73
2023/03/26 00:21:04;;;;;;;35.78;7.60;;;;;;;6.12;100.00;100568.38;5068850;28;20044;-73
2023/03/26 00:23:31;;;;;;;31.58;6.68;;;;;;;6.09;100.00;100565.72;5072687;28;20033;-74
2023/03/26 00:25:56;;;;;;;33.10;7.28;;;;;;;6.06;100.00;100570.91;5071391;28;20029;-73
2023/03/26 00:28:23;;;;;;;37.50;7.13;;;;;;;6.03;100.00;100570.81;5073051;28;20475;-73
2023/03/26 00:30:55;;;;;;;34.78;7.00;;;;;;;6.02;100.00;100567.31;5072435;28;20040;-74
2023/03/26 00:33:21;;;;;;;37.40;7.38;;;;;;;6.01;100.00;100562.91;5072561;28;20071;-72
2023/03/26 00:35:51;;;;;;;37.05;7.45;;;;;;;6.01;100.00;100559.41;5072517;28;20467;-72
2023/03/26 00:38:17;;;;;;;37.38;7.10;;;;;;;5.98;100.00;100551.50;5071939;28;20043;-73
2023/03/26 00:40:46;;;;;;;31.40;6.53;;;;;;;5.93;100.00;100552.25;5072466;28;20032;-74
2023/03/26 00:43:19;;;;;;;35.22;7.00;;;;;;;5.88;100.00;100551.31;5072256;28;20043;-73
2023/03/26 00:45:52;;;;;;;35.20;6.90;;;;;;;5.86;100.00;100555.63;5072628;28;20430;-73
2023/03/26 00:48:19;;;;;;;34.25;6.82;;;;;;;5.89;100.00;100547.81;5072539;28;20039;-73
2023/03/26 00:50:46;;;;;;;34.85;7.53;;;;;;;5.93;100.00;100544.38;5072455;28;20028;-73
2023/03/26 00:53:13;;;;;;;36.92;7.00;;;;;;;5.94;100.00;100537.38;5072286;28;20066;-72
2023/03/26 00:55:45;;;;;;;36.38;6.95;;;;;;;5.97;100.00;100541.81;5072496;28;20025;-72
2023/03/26 00:58:11;;;;;;;;;;;;;;;5.99;100.00;100538.41;5072672;28;20099;-73
2023/03/26 01:00:57;;;;;;;35.78;7.57;;;;;;;6.03;100.00;100534.06;5072560;28;20007;-74
2023/03/26 01:03:28;;;;;;;35.17;6.93;;;;;;;6.00;100.00;100540.19;5072290;28;20074;-73
2023/03/26 01:06:03;;;;;;;33.05;7.20;;;;;;;5.96;100.00;100532.19;5072431;28;20078;-73
2023/03/26 01:08:38;;;;;;;35.03;6.97;;;;;;;5.89;100.00;100521.56;5072273;28;20464;-71
2023/03/26 01:11:14;;;;;;;35.40;7.05;;;;;;;5.84;100.00;100512.75;5068457;28;20029;-72
2023/03/26 01:14:01;;;;;;;33.80;7.45;;;;;;;5.80;100.00;100500.41;5069245;28;20024;-71
2023/03/26 01:16:44;;;;;;;38.40;7.10;;;;;;;5.76;100.00;100503.84;5071978;28;20024;-71
2023/03/26 01:19:32;;;;;;;;;;;;;;;5.76;100.00;100506.47;5069484;28;20498;-70
2023/03/26 01:21:58;;;;;;;34.70;6.80;;;;;;;5.75;100.00;100500.34;5072078;28;19969;-72
2023/03/26 01:24:23;;;;;;;32.72;7.18;;;;;;;5.70;100.00;100495.88;5072078;28;20439;-71
2023/03/26 01:27:08;;;;;;;33.63;6.80;;;;;;;5.70;100.00;100493.25;5072466;28;20481;-71
2023/03/26 01:29:39;;;;;;;33.85;6.90;;;;;;;5.70;100.00;100488.88;5068502;28;20407;-71
2023/03/26 01:32:23;;;;;;;33.30;6.55;;;;;;;5.67;100.00;100480.06;5068407;28;20024;-71
2023/03/26 01:35:13;;;;;;;37.90;7.50;;;;;;;5.61;100.00;100472.97;5066045;28;20032;-70
2023/03/26 01:37:51;;;;;;;33.60;6.28;;;;;;;5.58;100.00;100467.69;5069096;28;20376;-71
2023/03/26 01:40:37;;;;;;;35.17;6.78;;;;;;;5.57;100.00;100465.91;5071932;28;20036;-71
2023/03/26 01:43:26;;;;;;;35.75;7.45;;;;;;;5.57;100.00;100472.00;5066604;28;20024;-71
2023/03/26 01:45:53;;;;;;;36.47;7.35;;;;;;;5.55;100.00;100471.13;5070628;28;20128;-72
2023/03/26 01:48:18;;;;;;;33.03;6.65;;;;;;;5.55;100.00;100459.75;5072747;28;20029;-71
2023/03/26 01:50:44;;;;;;;35.35;7.22;;;;;;;5.51;100.00;100464.03;5075667;28;20081;-71
2023/03/26 01:53:12;;;;;;;35.60;7.03;;;;;;;5.54;100.00;100463.22;5075315;28;20425;-71
2023/03/26 01:55:52;;;;;;;33.92;6.80;;;;;;;5.53;100.00;100458.81;5075265;28;20471;-71
2023/03/26 01:58:28;;;;;;;31.98;6.57;;;;;;;5.53;100.00;100457.09;5075195;28;20032;-71
2023/03/26 02:01:23;;;;;;;31.90;6.53;;;;;;;5.46;100.00;100444.72;5075763;28;20356;-71
2023/03/26 02:04:05;;;;;;;34.88;6.68;;;;;;;5.49;100.00;100444.78;5067996;28;20036;-72
2023/03/26 02:07:00;;;;;;;31.77;6.50;;;;;;;5.48;100.00;100435.16;5075376;28;20104;-71
2023/03/26 02:09:30;;;;;;;33.30;6.38;;;;;;;5.46;100.00;100431.63;5020992;28;20745;-71
2023/03/26 02:11:55;;;;;;;34.20;6.75;;;;;;;5.45;100.00;100429.84;5075356;28;20024;-71
2023/03/26 02:14:21;;;;;;;27.92;5.90;;;;;;;5.44;100.00;100428.06;5075101;28;20035;-71
2023/03/26 02:16:46;;;;;;;37.40;7.47;;;;;;;5.46;100.00;100426.38;5074923;28;20028;-71
2023/03/26 02:19:20;;;;;;;33.88;6.65;;;;;;;5.47;100.00;100422.00;5074924;28;20028;-71
2023/03/26 02:21:48;;;;;;;32.90;6.25;;;;;;;5.46;100.00;100413.28;5074952;28;20536;-72
2023/03/26 02:24:13;;;;;;;30.50;6.50;;;;;;;5.46;100.00;100408.03;5075162;28;20028;-71
2023/03/26 02:26:39;;;;;;;32.65;6.70;;;;;;;5.46;100.00;100409.75;5074954;28;20527;-71
2023/03/26 02:29:04;;;;;;;34.80;6.95;;;;;;;5.46;100.00;100404.50;5074808;28;20082;-71
2023/03/26 02:31:29;;;;;;;34.60;6.57;;;;;;;5.49;100.00;100405.47;5074754;28;20028;-71
2023/03/26 02:33:55;;;;;;;32.90;6.43;;;;;;;5.53;100.00;100406.38;5074911;28;20048;-71
2023/03/26 02:36:25;;;;;;;33.42;6.53;;;;;;;5.54;100.00;100410.78;5074899;28;20498;-72
2023/03/26 02:38:52;;;;;;;32.50;6.25;;;;;;;5.56;100.00;100398.56;5074502;28;20032;-72
2023/03/26 02:41:17;;;;;;;31.35;6.38;;;;;;;5.55;100.00;100402.94;5074810;28;20124;-72
2023/03/26 02:43:43;;;;;;;34.10;6.30;;;;;;;5.54;100.00;100395.91;5074370;28;20025;-71
2023/03/26 02:46:08;;;;;;;32.22;6.32;;;;;;;5.58;100.00;100399.50;5074632;28;20025;-72
2023/03/26 02:48:34;;;;;;;31.08;6.32;;;;;;;5.57;100.00;100388.09;5074667;28;20028;-71
2023/03/26 02:51:00;;;;;;;32.60;6.55;;;;;;;5.60;100.00;100379.41;5074321;28;20456;-72
2023/03/26 02:53:28;;;;;;;34.28;6.57;;;;;;;5.64;100.00;100377.75;5073092;28;20037;-72
2023/03/26 02:55:57;;;;;;;30.85;6.32;;;;;;;5.63;100.00;100374.22;5074471;28;20025;-72
2023/03/26 02:58:25;;;;;;;27.40;5.45;;;;;;;5.63;100.00;100366.34;5074128;28;20044;-72
2023/03/26 03:00:53;;;;;;;31.23;5.90;;;;;;;5.64;100.00;100362.88;5073495;28;20113;-72
2023/03/26 03:03:23;;;;;;;28.55;6.22;;;;;;;5.66;100.00;100363.78;5074305;28;20028;-72
2023/03/26 03:05:50;;;;;;;28.25;5.60;;;;;;;5.70;100.00;100357.72;5074323;28;20029;-72
2023/03/26 03:08:17;;;;;;;31.55;6.20;;;;;;;5.70;100.00;100351.59;5073983;28;20044;-72
2023/03/26 03:10:42;;;;;;;31.40;6.15;;;;;;;5.69;100.00;100348.09;5073854;28;20356;-72
2023/03/26 03:13:08;;;;;;;33.00;6.40;;;;;;;5.72;100.00;100347.25;5074183;28;20082;-72
2023/03/26 03:15:33;;;;;;;31.98;6.00;;;;;;;5.73;100.00;100342.03;5073983;28;20383;-72
2023/03/26 03:17:59;;;;;;;32.70;6.60;;;;;;;5.76;100.00;100335.97;5073956;28;20083;-72
2023/03/26 03:20:24;;;;;;;30.40;5.70;;;;;;;5.76;100.00;100330.72;5073629;28;20048;-73
2023/03/26 03:22:50;;;;;;;30.58;5.88;;;;;;;5.79;100.00;100329.91;5073676;28;20503;-72
2023/03/26 03:25:16;;;;;;;28.27;6.25;;;;;;;5.80;100.00;100329.91;5073820;28;20031;-73
2023/03/26 03:27:42;;;;;;;30.67;6.28;;;;;;;5.85;100.00;100325.59;5072378;28;20032;-72
2023/03/26 03:30:10;;;;;;;29.90;5.88;;;;;;;5.84;100.00;100323.88;5073644;28;20036;-72
2023/03/26 03:32:35;;;;;;;29.75;6.07;;;;;;;5.85;100.00;100316.88;5074075;28;20052;-72
2023/03/26 03:35:01;;;;;;;28.70;5.45;;;;;;;5.86;100.00;100318.63;5073419;28;20496;-72
2023/03/26 03:37:26;;;;;;;30.83;6.32;;;;;;;5.77;100.00;100316.75;5072463;28;20037;-72
2023/03/26 03:39:52;;;;;;;28.00;5.80;;;;;;;5.73;100.00;100304.44;5073422;28;20075;-73
2023/03/26 03:42:17;;;;;;;31.05;5.50;;;;;;;5.68;100.00;100314.88;5071960;28;20336;-72
2023/03/26 03:44:43;;;;;;;30.05;5.97;;;;;;;5.70;100.00;100314.88;5073261;28;20055;-73
2023/03/26 03:47:12;;;;;;;31.05;6.30;;;;;;;5.65;100.00;100301.72;5073421;28;20058;-73
2023/03/26 03:49:38;;;;;;;28.85;5.72;;;;;;;5.65;100.00;100306.06;5073229;28;20109;-73
2023/03/26 03:52:03;;;;;;;29.50;5.72;;;;;;;5.63;100.00;100307.78;5073457;28;20538;-73
2023/03/26 03:54:29;;;;;;;29.00;5.72;;;;;;;5.62;100.00;100300.75;5073221;28;20113;-74
2023/03/26 03:56:54;;;;;;;27.75;5.78;;;;;;;5.63;100.00;100302.53;5073036;28;20373;-71
2023/03/26 03:59:20;;;;;;;30.20;5.40;;;;;;;5.62;100.00;100296.41;5072964;28;20041;-74
2023/03/26 04:01:45;;;;;;;28.63;5.50;;;;;;;5.61;100.00;100297.28;5071913;28;20111;-74
2023/03/26 04:04:11;;;;;;;27.48;5.80;;;;;;;5.64;100.00;100288.56;5072938;28;20043;-74
2023/03/26 04:06:37;;;;;;;31.33;6.10;;;;;;;5.64;100.00;100278.09;5072977;28;20024;-72
2023/03/26 04:09:03;;;;;;;29.23;5.68;;;;;;;5.68;100.00;100283.41;5069260;28;20447;-71
2023/03/26 04:11:28;;;;;;;33.45;6.35;;;;;;;5.68;100.00;100277.25;5072093;28;20056;-72
2023/03/26 04:13:54;;;;;;;29.75;5.93;;;;;;;5.70;100.00;100262.44;5072889;28;20468;-72
2023/03/26 04:16:19;;;;;;;29.75;5.90;;;;;;;5.71;100.00;100259.84;5072807;28;20054;-72
2023/03/26 04:18:45;;;;;;;30.95;5.45;;;;;;;5.71;100.00;100262.47;5072622;28;20071;-72
2023/03/26 04:21:11;;;;;;;30.35;5.70;;;;;;;5.72;100.00;100245.88;5071590;28;20507;-73
2023/03/26 04:23:37;;;;;;;31.70;6.30;;;;;;;5.75;100.00;100240.66;5072777;28;20029;-71
2023/03/26 04:26:05;;;;;;;30.50;5.88;;;;;;;5.76;100.00;100239.78;5072983;28;20025;-72
2023/03/26 04:28:47;;;;;;;32.38;5.93;;;;;;;5.76;100.00;100242.41;5072894;28;20056;-72
2023/03/26 04:31:16;;;;;;;30.90;6.57;;;;;;;5.75;100.00;100234.53;5070022;28;20028;-72
2023/03/26 04:33:47;;;;;;;27.45;5.82;;;;;;;5.75;100.00;100235.41;5072631;28;20405;-73
2023/03/26 04:36:14;;;;;;;29.13;5.97;;;;;;;5.75;100.00;100219.69;5072580;28;20111;-72
2023/03/26 04:38:44;;;;;;;30.65;6.00;;;;;;;5.75;100.00;100217.06;5072569;28;20039;-71
2023/03/26 04:41:14;;;;;;;30.90;6.15;;;;;;;5.74;100.00;100209.19;5072692;28;20521;-72
2023/03/26 04:43:46;;;;;;;29.30;6.38;;;;;;;5.73;100.00;100204.78;5071308;28;20024;-73
2023/03/26 04:46:17;;;;;;;30.67;6.25;;;;;;;5.72;100.00;100209.16;5072491;28;20024;-72
2023/03/26 04:48:43;;;;;;;31.73;6.70;;;;;;;5.69;100.00;100203.84;5072683;28;20526;-72
2023/03/26 04:51:16;;;;;;;30.95;5.97;;;;;;;5.64;100.00;100195.03;5072370;28;20486;-72
2023/03/26 04:53:47;;;;;;;30.33;5.80;;;;;;;5.59;100.00;100192.34;5072705;28;20037;-73
2023/03/26 04:56:31;;;;;;;28.27;5.93;;;;;;;5.56;100.00;100194.03;5072560;28;20437;-71
2023/03/26 04:58:59;;;;;;;32.83;5.90;;;;;;;5.54;100.00;100188.78;5072296;28;20020;-72
2023/03/26 05:01:27;;;;;;;31.20;5.88;;;;;;;5.54;100.00;100191.41;5072502;28;20052;-73
2023/03/26 05:03:52;;;;;;;30.20;6.18;;;;;;;5.50;100.00;100176.47;5072595;28;20115;-73
2023/03/26 05:06:18;;;;;;;34.22;6.22;;;;;;;5.51;100.00;100169.50;5072259;28;20182;-72
2023/03/26 05:08:43;;;;;;;28.73;6.10;;;;;;;5.48;100.00;100170.34;5071199;28;20472;-73
2023/03/26 05:11:10;;;;;;;28.55;6.10;;;;;;;5.49;100.00;100174.75;5072309;28;20029;-72
2023/03/26 05:13:36;;;;;;;32.88;6.45;;;;;;;5.50;100.00;100166.00;5072319;28;20377;-72
2023/03/26 05:16:02;;;;;;;29.27;5.78;;;;;;;5.49;100.00;100164.25;5072331;28;20024;-73
2023/03/26 05:18:27;;;;;;;28.27;6.15;;;;;;;5.53;100.00;100158.19;5072080;28;20064;-72
2023/03/26 05:20:52;;;;;;;31.35;6.10;;;;;;;5.56;100.00;100154.72;5071813;28;20075;-72
2023/03/26 05:23:18;;;;;;;31.13;6.78;;;;;;;5.57;100.00;100156.47;5073346;28;20059;-73
2023/03/26 05:25:43;;;;;;;32.58;6.88;;;;;;;5.59;100.00;100153.03;5075962;28;20107;-71
2023/03/26 05:28:09;;;;;;;30.67;5.95;;;;;;;5.59;100.00;100150.41;5076138;28;20073;-73
2023/03/26 05:30:34;;;;;;;29.98;6.20;;;;;;;5.61;100.00;100147.81;5075989;28;20452;-73
2023/03/26 05:33:01;;;;;;;31.08;6.13;;;;;;;5.64;100.00;100141.72;5075755;28;20115;-73
2023/03/26 05:35:27;;;;;;;31.55;6.78;;;;;;;5.67;100.00;100142.63;5076099;28;20029;-73
2023/03/26 05:37:52;;;;;;;29.77;6.40;;;;;;;5.66;100.00;100135.63;5075803;28;20108;-73
2023/03/26 05:40:18;;;;;;;34.28;7.20;;;;;;;5.71;100.00;100136.56;5075590;28;20042;-73
2023/03/26 05:42:44;;;;;;;29.30;6.50;;;;;;;5.72;100.00;100134.81;5075804;28;20058;-72
2023/03/26 05:45:12;;;;;;;31.83;6.43;;;;;;;5.71;100.00;100127.84;5075530;28;20029;-73
2023/03/26 05:47:37;;;;;;;30.38;6.88;;;;;;;5.75;100.00;100121.75;5075592;28;20025;-73
2023/03/26 05:50:05;;;;;;;30.63;6.43;;;;;;;5.75;100.00;100121.75;5075730;28;20394;-73
2023/03/26 05:52:30;;;;;;;31.75;6.68;;;;;;;5.78;100.00;100120.91;5075499;28;20028;-72
2023/03/26 05:54:56;;;;;;;31.45;6.68;;;;;;;5.78;100.00;100116.53;5075467;28;20082;-72
2023/03/26 05:57:22;;;;;;;32.00;6.45;;;;;;;5.78;100.00;100118.28;5075587;28;20479;-72
2023/03/26 05:59:48;;;;;;;32.75;7.00;;;;;;;5.81;100.00;100121.84;5074146;28;20036;-72
2023/03/26 06:02:14;;;;;;;31.17;6.85;;;;;;;5.80;100.00;100113.97;5075320;28;20033;-73
2023/03/26 06:04:41;;;;;;;31.67;7.03;;;;;;;5.80;100.00;100106.94;5075495;28;20024;-72
2023/03/26 06:07:10;;;;;;;32.17;6.63;;;;;;;5.80;100.00;100099.09;5075340;28;20028;-72
2023/03/26 06:09:37;;;;;;;29.20;6.70;;;;;;;5.80;100.00;100095.59;5071388;28;20395;-72
2023/03/26 06:12:03;;;;;;;29.55;7.03;;;;;;;5.80;100.00;100093.84;5075433;28;20024;-71
2023/03/26 06:14:29;;;;;;;33.65;7.63;;;;;;;5.78;100.00;100092.91;5075033;28;20033;-72
2023/03/26 06:16:54;;;;;;;33.05;8.23;;;;;;;5.78;100.00;100082.44;5075028;28;20490;-72
2023/03/26 06:19:19;;;;;;;31.90;8.10;;;;;;;5.80;100.00;100085.09;5074911;28;20032;-72
2023/03/26 06:21:45;;;;;;;32.03;9.70;;;;;;;5.77;100.00;100083.31;5074975;28;20025;-72
2023/03/26 06:24:10;;;;;;;39.83;16.13;;;;;;;5.77;100.00;100078.06;5074982;28;20040;-72
2023/03/26 06:26:35;;;;;;;34.42;16.80;;;;;;;5.77;100.00;100075.44;5075348;28;20532;-72
2023/03/26 06:29:01;;;;;;;33.58;13.05;;;;;;;5.78;100.00;100076.31;5074793;28;20500;-72
2023/03/26 06:31:26;;;;;;;33.08;10.38;;;;;;;5.75;100.00;100075.44;5075033;28;20036;-72
2023/03/26 06:33:52;;;;;;;31.40;8.50;;;;;;;5.77;100.00;100080.69;5074718;28;20360;-71
2023/03/26 06:36:17;;;;;;;31.17;7.95;;;;;;;5.76;100.00;100081.53;5073582;28;20033;-72
2023/03/26 06:38:43;;;;;;;32.65;8.38;;;;;;;5.77;100.00;100080.69;5074883;28;20078;-72
2023/03/26 06:41:08;;;;;;;31.80;7.47;;;;;;;5.78;100.00;100081.56;5074648;28;20029;-72
2023/03/26 06:43:35;;;;;;;31.63;7.32;;;;;;;5.78;100.00;100082.44;5074563;28;20025;-71
2023/03/26 06:46:01;;;;;;;27.48;7.22;;;;;;;5.81;100.00;100082.50;5074690;28;20066;-71
2023/03/26 06:48:26;;;;;;;31.13;8.32;;;;;;;5.81;100.00;100086.84;5074550;28;20067;-71
2023/03/26 06:50:52;;;;;;;29.92;8.48;;;;;;;5.82;100.00;100089.47;5074450;28;20468;-71
2023/03/26 06:53:17;;;;;;;32.20;9.30;;;;;;;5.81;100.00;100090.38;5074523;28;20032;-73
2023/03/26 06:55:42;;;;;;;34.92;10.85;;;;;;;5.83;100.00;100087.75;5074283;28;20467;-72
2023/03/26 06:58:10;;;;;;;34.10;12.23;;;;;;;5.83;100.00;100088.63;5074234;28;20372;-71
2023/03/26 07:00:35;;;;;;;35.65;13.57;;;;;;;5.83;100.00;100080.75;5070452;28;20032;-71
2023/03/26 07:03:03;;;;;;;34.17;12.57;;;;;;;5.84;100.00;100079.91;5074159;28;20391;-73
2023/03/26 07:05:28;;;;;;;32.97;11.65;;;;;;;5.85;100.00;100081.63;5074069;28;20429;-72
2023/03/26 07:07:53;;;;;;;32.83;8.93;;;;;;;5.85;100.00;100076.41;5074303;28;20111;-72
2023/03/26 07:10:19;;;;;;;29.40;8.45;;;;;;;5.86;100.00;100077.28;5072756;28;20066;-72
2023/03/26 07:12:44;;;;;;;29.13;7.82;;;;;;;5.86;100.00;100078.16;5073952;28;20071;-72
2023/03/26 07:15:10;;;;;;;28.67;7.85;;;;;;;5.88;100.00;100078.19;5074159;28;20027;-73
2023/03/26 07:17:35;;;;;;;32.05;8.82;;;;;;;5.88;100.00;100072.94;5073742;28;20067;-73
2023/03/26 07:20:01;;;;;;;30.83;8.52;;;;;;;5.88;100.00;100076.47;5073760;28;20051;-73
2023/03/26 07:22:27;;;;;;;29.75;8.43;;;;;;;5.91;100.00;100076.47;5074147;28;20028;-73
2023/03/26 07:24:52;;;;;;;30.80;8.52;;;;;;;5.91;100.00;100072.97;5073656;28;20059;-73
2023/03/26 07:27:55;;;;;;;28.80;8.68;;;;;;;5.92;100.00;100064.25;5073938;28;20032;-74
2023/03/26 07:30:31;;;;;;;30.80;9.40;;;;;;;5.93;100.00;100064.25;5071685;28;20103;-74
2023/03/26 07:33:09;;;;;;;28.75;9.27;;;;;;;5.97;100.00;100061.66;5073579;28;20017;-74
2023/03/26 07:35:47;;;;;;;28.10;8.52;;;;;;;5.98;100.00;100060.84;5069682;28;20103;-74
2023/03/26 07:38:28;;;;;;;28.20;8.77;;;;;;;5.99;100.00;100060.84;5070524;28;20028;-73
2023/03/26 07:41:08;;;;;;;31.25;9.43;;;;;;;6.01;100.00;100058.25;5073722;28;20059;-73
2023/03/26 07:43:57;;;;;;;29.17;8.95;;;;;;;6.02;100.00;100057.38;5073558;28;20103;-74
2023/03/26 07:46:28;;;;;;;30.95;9.38;;;;;;;6.02;100.00;100044.28;5070428;28;20032;-73
2023/03/26 07:48:57;;;;;;;30.13;9.90;;;;;;;6.02;100.00;100042.50;5072055;28;20035;-74
2023/03/26 07:51:23;;;;;;;28.27;9.40;;;;;;;6.04;100.00;100045.16;5073260;28;20479;-73
2023/03/26 07:53:48;;;;;;;31.92;10.10;;;;;;;6.06;100.00;100051.31;5073561;28;20150;-73
2023/03/26 07:56:16;;;;;;;33.35;9.95;;;;;;;6.07;100.00;100048.69;5073293;28;20499;-73
2023/03/26 07:58:59;;;;;;;30.33;9.98;;;;;;;6.08;100.00;100046.94;5073046;28;20378;-74
2023/03/26 08:01:39;;;;;;;30.45;9.57;;;;;;;6.11;100.00;100044.34;5073168;28;20033;-72
2023/03/26 08:04:26;;;;;;;34.53;10.65;;;;;;;6.16;100.00;100042.66;5073132;28;20170;-72
2023/03/26 08:07:02;;;;;;;31.83;9.80;;;;;;;6.20;100.00;100047.03;5071228;28;20170;-73
2023/03/26 08:09:33;;;;;;;31.98;9.88;;;;;;;6.25;100.00;100040.13;5072876;28;20387;-72
2023/03/26 08:12:04;;;;;;;32.17;10.43;;;;;;;6.26;100.00;100044.50;5072924;28;20032;-72
2023/03/26 08:14:58;;;;;;;33.10;12.32;;;;;;;6.31;100.00;100038.44;5073016;28;20029;-71
2023/03/26 08:17:46;;;;;;;36.05;15.63;;;;;;;6.34;100.00;100041.94;5071447;28;20033;-72
2023/03/26 08:20:49;;;;;;;36.35;16.60;;;;;;;6.40;100.00;100038.50;5069536;28;20052;-74
2023/03/26 08:23:48;;;;;;;38.67;20.60;;;;;;;6.42;100.00;100034.13;5072853;28;20020;-74
2023/03/26 08:26:42;;;;;;;40.92;24.35;;;;;;;6.43;100.00;100035.88;5069712;28;20036;-72
2023/03/26 08:29:12;;;;;;;42.22;25.65;;;;;;;6.51;100.00;100042.09;5069146;28;20029;-72
2023/03/26 08:31:40;;;;;;;41.63;25.35;;;;;;;6.54;100.00;100029.00;5068887;28;20379;-72
2023/03/26 08:34:10;;;;;;;40.88;22.50;;;;;;;6.57;100.00;100033.38;5072607;28;20024;-74
2023/03/26 08:36:36;;;;;;;39.15;20.45;;;;;;;6.60;100.00;100025.53;5072867;28;20379;-72
2023/03/26 08:39:02;;;;;;;33.10;15.40;;;;;;;6.59;100.00;100036.88;5072446;28;20028;-74
2023/03/26 08:41:51;;;;;;;34.05;13.10;;;;;;;6.57;100.00;100038.63;5072536;28;20044;-74
2023/03/26 08:44:39;;;;;;;31.05;10.82;;;;;;;6.58;100.00;100024.63;5069999;28;20395;-71
2023/03/26 08:47:26;;;;;;;30.90;9.98;;;;;;;6.65;100.00;100030.81;5072397;28;20025;-74
2023/03/26 08:50:10;;;;;;;31.80;9.55;;;;;;;6.73;100.00;100029.13;5070554;28;20103;-72
2023/03/26 08:53:07;;;;;;;33.58;9.48;;;;;;;6.77;100.00;100031.78;5072469;28;20107;-72
2023/03/26 08:55:54;;;;;;;28.10;8.65;;;;;;;6.80;100.00;100030.91;5071934;28;20064;-72
2023/03/26 08:58:46;;;;;;;33.55;9.23;;;;;;;6.90;100.00;100032.75;5071108;28;20112;-72
2023/03/26 09:01:29;;;;;;;28.67;9.07;;;;;;;6.94;100.00;100028.38;5073388;28;20028;-71
2023/03/26 09:04:11;;;;;;;27.17;8.00;;;;;;;6.95;100.00;100025.75;5076839;28;20029;-72
2023/03/26 09:06:42;;;;;;;29.65;8.48;;;;;;;7.06;100.00;100022.31;5072435;28;20107;-73
2023/03/26 09:09:36;;;;;;;29.70;8.35;;;;;;;7.14;100.00;100024.13;5071233;28;20036;-73
2023/03/26 09:12:13;;;;;;;30.75;8.13;;;;;;;7.13;100.00;100021.47;5071525;28;20502;-72
2023/03/26 09:14:49;;;;;;;27.10;7.93;;;;;;;7.15;100.00;100017.13;5072490;28;20024;-72
2023/03/26 09:17:38;;;;;;;27.42;7.72;;;;;;;7.07;100.00;100019.69;5073479;28;20029;-74
2023/03/26 09:20:13;;;;;;;28.33;6.90;;;;;;;7.00;100.00;100032.78;5076044;28;20106;-72
2023/03/26 09:23:00;;;;;;;28.13;7.85;;;;;;;7.03;100.00;100028.41;5072233;28;20037;-72
2023/03/26 09:25:41;;;;;;;29.95;9.82;;;;;;;7.10;100.00;100017.06;5074552;28;20020;-73
2023/03/26 09:28:31;;;;;;;31.38;10.20;;;;;;;7.19;100.00;100021.50;5071978;28;20079;-74
2023/03/26 09:31:00;;;;;;;28.50;9.25;;;;;;;7.16;100.00;100013.59;5074623;28;20111;-74
2023/03/26 09:33:31;;;;;;;26.95;8.55;;;;;;;7.14;100.00;100025.88;5076179;28;20548;-75
2023/03/26 09:36:05;;;;;;;26.50;8.30;;;;;;;7.19;100.00;100018.88;5075839;28;20028;-75
2023/03/26 09:38:44;;;;;;;25.17;7.90;;;;;;;7.10;100.00;100018.84;5075767;28;20108;-74
2023/03/26 09:41:23;;;;;;;26.00;7.72;;;;;;;6.97;100.00;100021.41;5072193;28;20034;-74
2023/03/26 09:44:17;;;;;;;23.77;6.60;;;;;;;6.95;100.00;100017.88;5073184;28;20100;-73
2023/03/26 09:47:08;;;;;;;24.67;6.50;;;;;;;6.95;100.00;100020.50;5071046;28;20032;-73
2023/03/26 09:49:55;;;;;;;23.67;5.55;;;;;;;6.91;100.00;100016.09;5075646;28;20040;-76
2023/03/26 09:52:39;;;;;;;21.48;5.07;;;;;;;6.78;100.00;100019.50;5073344;28;20119;-75
2023/03/26 09:55:41;;;;;;;20.67;5.03;;;;;;;6.77;100.00;100015.13;5075463;28;20376;-78
2023/03/26 09:58:37;;;;;;;20.10;4.97;;;;;;;6.76;100.00;100023.91;5071657;28;20067;-73
2023/03/26 10:01:28;;;;;;;19.35;4.97;;;;;;;6.75;100.00;100022.13;5075033;28;20087;-73
2023/03/26 10:04:26;;;;;;;23.05;5.70;;;;;;;6.83;100.00;100030.06;5073615;28;20153;-74
2023/03/26 10:07:00;;;;;;;22.30;7.35;;;;;;;6.83;100.00;100025.69;5073116;28;20056;-74
2023/03/26 10:09:53;;;;;;;22.33;6.93;;;;;;;6.84;100.00;100016.91;5075116;28;20033;-76
2023/03/26 10:12:35;;;;;;;18.90;5.20;;;;;;;6.81;100.00;100024.78;5072705;28;20025;-73
2023/03/26 10:15:31;;;;;;;18.73;4.82;;;;;;;6.88;100.00;100023.97;5075281;28;20107;-77
2023/03/26 10:17:59;;;;;;;21.60;5.63;;;;;;;6.95;100.00;100023.13;5073751;28;20033;-72
2023/03/26 10:20:36;;;;;;;22.70;6.03;;;;;;;6.98;100.00;100020.50;5074826;28;20052;-74
2023/03/26 10:23:07;;;;;;;21.23;6.03;;;;;;;7.17;100.00;100028.50;5075222;28;20060;-74
2023/03/26 10:26:00;;;;;;;22.17;6.60;;;;;;;7.27;100.00;100025.06;5075136;28;20125;-74
2023/03/26 10:28:51;;;;;;;21.45;6.95;;;;;;;7.28;100.00;100023.28;5073544;28;20479;-73
2023/03/26 10:31:41;;;;;;;23.52;6.95;;;;;;;7.19;100.00;100029.38;5072344;28;20410;-75
2023/03/26 10:34:22;;;;;;;20.05;6.10;;;;;;;6.90;100.00;100032.75;5074813;28;20040;-74
2023/03/26 10:36:59;;;;;;;17.50;4.35;;;;;;;6.72;100.00;100033.47;5072121;28;20035;-72
2023/03/26 10:39:32;;;;;;;18.73;4.53;;;;;;;6.69;100.00;100032.59;5074860;28;20032;-74
2023/03/26 10:42:10;;;;;;;19.40;4.53;;;;;;;6.78;100.00;100033.53;5074704;28;20086;-76
2023/03/26 10:44:59;;;;;;;18.50;4.00;;;;;;;6.86;100.00;100036.22;5074640;28;20518;-72
2023/03/26 10:47:57;;;;;;;18.08;4.18;;;;;;;6.89;100.00;100030.97;5072884;28;20111;-72
2023/03/26 10:50:31;;;;;;;15.43;3.80;;;;;;;6.89;100.00;100038.88;5072734;28;20028;-74
2023/03/26 10:53:05;;;;;;;16.63;3.50;;;;;;;6.84;100.00;100040.56;5074565;28;20029;-71
2023/03/26 10:55:36;;;;;;;16.25;3.60;;;;;;;6.86;100.00;100040.56;5072969;28;20111;-72
2023/03/26 10:58:09;;;;;;;18.55;4.05;;;;;;;6.95;100.00;100046.78;5074186;28;20054;-71
2023/03/26 11:00:42;;;;;;;19.27;4.00;;;;;;;7.00;100.00;100043.31;5074495;28;20028;-72
2023/03/26 11:03:44;;;;;;;16.63;3.88;;;;;;;7.17;100.00;100046.91;5070432;28;20020;-71
2023/03/26 11:06:40;;;;;;;17.15;4.05;;;;;;;7.15;100.00;100043.41;5070376;28;20035;-71
2023/03/26 11:09:28;;;;;;;16.85;3.88;;;;;;;7.29;100.00;100046.97;5073841;28;20032;-73
2023/03/26 11:12:13;;;;;;;16.52;4.10;;;;;;;7.13;100.00;100047.75;5070868;28;20029;-71
2023/03/26 11:14:47;;;;;;;17.63;4.22;;;;;;;7.28;100.00;100047.84;5068754;28;20099;-73
2023/03/26 11:17:42;;;;;;;17.48;4.18;;;;;;;7.30;100.00;100051.34;5070517;28;20035;-72
2023/03/26 11:20:36;;;;;;;16.67;4.00;;;;;;;7.53;100.00;100054.97;5062811;28;20055;-71
2023/03/26 11:23:09;;;;;;;16.33;3.88;;;;;;;7.35;100.00;100058.41;5063735;28;20037;-74
2023/03/26 11:25:37;;;;;;;17.85;4.15;;;;;;;7.45;100.00;100058.44;5074116;28;20056;-72
2023/03/26 11:28:22;;;;;;;15.23;3.35;;;;;;;7.33;100.00;100059.25;5073961;28;20032;-73
2023/03/26 11:30:54;;;;;;;15.15;3.58;;;;;;;7.06;100.00;100065.25;5071448;28;20433;-72
2023/03/26 11:33:28;;;;;;;13.65;3.42;;;;;;;7.01;100.00;100061.72;5074222;28;20024;-71
2023/03/26 11:35:58;;;;;;;18.52;3.70;;;;;;;7.18;100.00;100064.44;5073587;28;20024;-73
2023/03/26 11:38:45;;;;;;;15.70;3.95;;;;;;;7.34;100.00;100065.41;5073495;28;20044;-72
2023/03/26 11:41:16;;;;;;;15.75;3.70;;;;;;;7.30;100.00;100061.00;5065720;28;20421;-73
2023/03/26 11:43:44;;;;;;;13.18;3.33;;;;;;;7.26;100.00;100067.97;5068817;28;20024;-74